Time;durP1;ratioP1;P1;durP2;ratioP2;P2;SDS_P1;SDS_P2;PMS_P1;PMS_P2;Temp;Humidity;BMP_temperature;BMP_pressure;BME280_temperature;BME280_humidity;BME280_pressure;Samples;Min_cycle;Max_cycle;Signal;HPM_P1;HPM_P2
2022/01/09 00:00:30;;;;;;;;;2.00;1.00;;;;;8.18;100.00;99713.81;5030548;28;45577;-82
2022/01/09 00:02:57;;;;;;;;;1.25;1.25;;;;;8.16;100.00;99720.59;5031577;28;45366;-81
2022/01/09 00:05:23;;;;;;;;;1.25;1.00;;;;;8.06;100.00;99717.69;5024822;28;45322;-82
2022/01/09 00:07:49;;;;;;;;;4.75;1.25;;;;;8.05;100.00;99738.25;5032913;28;45443;-81
2022/01/09 00:10:16;;;;;;;;;1.00;1.00;;;;;7.99;100.00;99738.91;5034100;28;45503;-80
2022/01/09 00:12:42;;;;;;;;;3.50;2.00;;;;;7.96;100.00;99738.78;4998987;28;45507;-81
2022/01/09 00:15:09;;;;;;;;;3.75;1.25;;;;;7.95;100.00;99757.66;5017112;28;45426;-81
2022/01/09 00:17:35;;;;;;;;;1.25;1.25;;;;;7.96;100.00;99749.09;5015764;28;46142;-81
2022/01/09 00:20:01;;;;;;;;;0.25;0.25;;;;;7.89;100.00;99783.19;5015545;28;45892;-81
2022/01/09 00:22:36;;;;;;;;;2.00;2.00;;;;;7.80;100.00;99755.38;5025249;28;45643;-81
2022/01/09 00:25:03;;;;;;;;;3.00;3.00;;;;;7.78;100.00;99766.44;5035405;28;45477;-81
2022/01/09 00:27:29;;;;;;;;;2.25;2.25;;;;;7.80;100.00;99764.81;5004892;28;45491;-80
2022/01/09 00:29:54;;;;;;;;;3.00;1.75;;;;;7.78;100.00;99790.50;5027276;28;45390;-80
2022/01/09 00:32:20;;;;;;;;;0.50;0.50;;;;;7.77;100.00;99780.13;5033267;28;45306;-80
2022/01/09 00:34:45;;;;;;;;;4.00;3.00;;;;;7.81;100.00;99790.63;5035905;28;45321;-81
2022/01/09 00:37:11;;;;;;;;;9.75;2.00;;;;;7.78;100.00;99799.94;5016376;28;45890;-80
2022/01/09 00:39:37;;;;;;;;;2.50;1.00;;;;;7.78;100.00;99797.34;5017805;28;45311;-81
2022/01/09 00:42:02;;;;;;;;;5.75;2.75;;;;;7.80;100.00;99806.91;5032865;28;45241;-81
2022/01/09 00:44:28;;;;;;;;;3.00;1.00;;;;;7.80;100.00;99813.75;5034509;28;45634;-81
2022/01/09 00:46:56;;;;;;;;;3.50;2.50;;;;;7.75;100.00;99824.75;5025634;28;45790;-81
2022/01/09 00:49:22;;;;;;;;;4.00;1.25;;;;;7.69;100.00;99821.03;5015679;28;45419;-81
2022/01/09 00:51:48;;;;;;;;;3.75;1.00;;;;;7.73;100.00;99835.81;5025387;28;45550;-81
2022/01/09 00:54:14;;;;;;;;;3.25;1.00;;;;;7.75;100.00;99835.06;5034741;28;45475;-81
2022/01/09 00:56:39;;;;;;;;;3.00;1.00;;;;;7.75;100.00;99837.63;5030074;28;46206;-81
2022/01/09 00:59:05;;;;;;;;;1.00;0.50;;;;;7.79;100.00;99846.38;5025427;28;45459;-81
2022/01/09 01:01:30;;;;;;;;;4.00;1.25;;;;;7.80;100.00;99857.56;5016304;28;45619;-81
2022/01/09 01:03:56;;;;;;;;;3.00;2.00;;;;;7.80;100.00;99865.31;5019638;28;45401;-81
2022/01/09 01:06:21;;;;;;;;;7.00;0.50;;;;;7.79;100.00;99869.56;5016363;28;45395;-81
2022/01/09 01:08:47;;;;;;;;;4.00;1.25;;;;;7.80;100.00;99880.75;5015752;28;45225;-81
2022/01/09 01:11:13;;;;;;;;;4.75;1.00;;;;;7.85;100.00;99892.13;5016383;28;45503;-81
2022/01/09 01:13:39;;;;;;;;;2.75;1.00;;;;;7.88;100.00;99897.41;4997489;28;45446;-81
2022/01/09 01:16:04;;;;;;;;;3.50;1.00;;;;;7.84;100.00;99903.25;5015853;28;45898;-81
2022/01/09 01:18:30;;;;;;;;;2.75;1.25;;;;;7.80;100.00;99897.09;5014018;28;45436;-81
2022/01/09 01:20:55;;;;;;;;;2.00;1.25;;;;;7.84;100.00;99919.59;5017117;28;45389;-80
2022/01/09 01:23:21;;;;;;;;;2.50;1.00;;;;;7.86;100.00;99932.53;5027735;28;45616;-81
2022/01/09 01:25:51;;;;;;;;;2.25;1.00;;;;;7.83;100.00;99933.28;5018942;28;46468;-81
2022/01/09 01:28:17;;;;;;;;;3.00;1.75;;;;;7.82;100.00;99923.81;5027057;28;45318;-81
2022/01/09 01:30:43;;;;;;;;;1.00;1.00;;;;;7.88;100.00;99936.06;5038541;28;45478;-82
2022/01/09 01:33:09;;;;;;;;;3.00;1.00;;;;;7.89;100.00;99950.72;5020203;28;45303;-81
2022/01/09 01:35:34;;;;;;;;;3.75;1.00;;;;;7.93;100.00;99949.13;5018578;28;45345;-82
2022/01/09 01:38:00;;;;;;;;;2.25;0.75;;;;;7.93;100.00;99980.06;5034518;28;45426;-81
2022/01/09 01:40:26;;;;;;;;;1.75;0.75;;;;;7.88;100.00;99980.75;5024180;28;45938;-81
2022/01/09 01:42:52;;;;;;;;;1.00;1.00;;;;;7.86;100.00;99989.22;5033455;28;45428;-81
2022/01/09 01:45:17;;;;;;;;;1.50;1.00;;;;;7.76;100.00;100006.03;5038016;28;45439;-81
2022/01/09 01:47:43;;;;;;;;;3.00;0.00;;;;;7.70;100.00;100013.47;5036091;28;45292;-81
2022/01/09 01:50:12;;;;;;;;;1.50;1.25;;;;;7.56;100.00;100025.75;5038013;28;45479;-81
2022/01/09 01:52:42;;;;;;;;;1.75;0.25;;;;;7.43;100.00;100001.16;5004863;28;45396;-81
2022/01/09 01:55:10;;;;;;;;;2.00;1.00;;;;;7.36;100.00;100010.28;4999987;28;46818;-81
2022/01/09 01:57:38;;;;;;;;;3.25;1.00;;;;;7.26;100.00;100029.59;5031884;28;45392;-81
2022/01/09 02:00:08;;;;;;;;;4.00;1.00;;;;;7.20;100.00;100020.69;5037686;28;45284;-81
2022/01/09 02:02:33;;;;;;;;;3.25;1.00;;;;;7.22;100.00;100026.81;5034000;28;45249;-81
2022/01/09 02:04:59;;;;;;;;;3.75;1.00;;;;;7.29;100.00;100023.69;5036928;28;46092;-81
2022/01/09 02:07:27;;;;;;;;;1.75;1.75;;;;;7.32;100.00;100018.69;5035917;28;45280;-81
2022/01/09 02:09:53;;;;;;;;;2.00;1.00;;;;;7.36;100.00;100025.75;5018215;28;45307;-80
2022/01/09 02:12:19;;;;;;;;;0.00;0.00;;;;;7.37;100.00;100024.94;5030007;28;45549;-81
2022/01/09 02:14:47;;;;;;;;;2.00;1.50;;;;;7.41;100.00;100038.81;5038087;28;45484;-81
2022/01/09 02:17:21;;;;;;;;;0.50;0.50;;;;;7.40;100.00;100032.78;5038106;28;45402;-81
2022/01/09 02:19:58;;;;;;;;;3.50;1.00;;;;;7.43;100.00;100050.94;5034758;28;45470;-82
2022/01/09 02:22:27;;;;;;;;;1.75;0.75;;;;;7.39;100.00;100046.50;5035020;28;45562;-81
2022/01/09 02:24:52;;;;;;;;;2.75;1.00;;;;;7.41;100.00;100039.69;5031677;28;45558;-81
2022/01/09 02:27:19;;;;;;;;;2.25;0.25;;;;;7.43;100.00;100050.09;5037515;28;45304;-81
2022/01/09 02:29:48;;;;;;;;;1.25;1.00;;;;;7.42;100.00;100064.63;5024681;28;45265;-81
2022/01/09 02:32:16;;;;;;;;;1.50;1.00;;;;;7.37;100.00;100054.94;5028461;28;45624;-81
2022/01/09 02:34:47;;;;;;;;;0.25;0.25;;;;;7.33;100.00;100053.94;5023843;28;46057;-82
2022/01/09 02:37:13;;;;;;;;;0.00;0.00;;;;;7.32;100.00;100052.16;5037048;28;45353;-81
2022/01/09 02:39:38;;;;;;;;;0.00;0.00;;;;;7.37;100.00;100072.97;5036835;28;45228;-81
2022/01/09 02:42:06;;;;;;;;;0.75;0.00;;;;;7.35;100.00;100083.22;5019026;28;45246;-81
2022/01/09 02:44:32;;;;;;;;;0.50;0.50;;;;;7.27;100.00;100088.00;5030561;28;46275;-81
2022/01/09 02:47:06;;;;;;;;;1.00;1.00;;;;;7.21;100.00;100072.28;5035979;28;45274;-81
2022/01/09 02:49:32;;;;;;;;;2.25;1.00;;;;;7.22;100.00;100068.00;5035054;28;45549;-81
2022/01/09 02:51:58;;;;;;;;;1.00;0.00;;;;;7.18;100.00;100076.41;5036187;28;45365;-81
2022/01/09 02:57:08;;;;;;;;;2.00;0.25;;;;;7.25;100.00;100091.31;5031003;28;45509;-81
2022/01/09 02:59:34;;;;;;;;;0.75;0.00;;;;;7.18;100.00;100097.00;5018427;28;45368;-81
2022/01/09 03:01:59;;;;;;;;;1.00;1.00;;;;;7.13;100.00;100105.38;5018589;28;45341;-81
2022/01/09 03:04:25;;;;;;;;;0.50;0.50;;;;;7.07;100.00;100096.50;5035008;28;45541;-81
2022/01/09 03:06:50;;;;;;;;;0.00;0.00;;;;;7.09;100.00;100107.75;5009084;28;45435;-81
2022/01/09 03:09:17;;;;;;;;;2.00;1.00;;;;;7.03;100.00;100108.34;5017312;28;45412;-81
2022/01/09 03:11:45;;;;;;;;;0.25;0.00;;;;;7.04;100.00;100101.47;5017025;28;45585;-81
2022/01/09 03:14:10;;;;;;;;;0.00;0.00;;;;;7.02;100.00;100108.28;5016306;28;46116;-81
2022/01/09 03:16:36;;;;;;;;;0.00;0.00;;;;;7.04;100.00;100112.66;5017121;28;45359;-81
2022/01/09 03:19:02;;;;;;;;;3.25;0.75;;;;;7.06;100.00;100105.91;5017604;28;45284;-81
2022/01/09 03:21:28;;;;;;;;;1.75;0.00;;;;;7.11;100.00;100108.69;5019407;28;45218;-81
2022/01/09 03:23:53;;;;;;;;;1.00;0.00;;;;;7.15;100.00;100118.31;5020251;28;45379;-81
2022/01/09 03:26:19;;;;;;;;;2.75;0.75;;;;;7.21;100.00;100121.19;5031100;28;45323;-81
2022/01/09 03:28:44;;;;;;;;;0.50;0.00;;;;;7.36;100.00;100121.03;5033050;28;45507;-81
2022/01/09 03:31:10;;;;;;;;;4.00;0.00;;;;;7.41;100.00;100134.13;5035236;28;45315;-81
2022/01/09 03:33:36;;;;;;;;;3.00;1.00;;;;;7.49;100.00;100162.81;5036261;28;45336;-82
2022/01/09 03:36:01;;;;;;;;;1.00;0.00;;;;;7.44;100.00;100158.31;5030518;28;45524;-82
2022/01/09 03:38:27;;;;;;;;;2.00;1.00;;;;;7.40;100.00;100164.13;5016535;28;45360;-81
2022/01/09 03:40:52;;;;;;;;;3.50;2.25;;;;;7.34;100.00;100173.28;5016216;28;45331;-81
2022/01/09 03:43:18;;;;;;;;;1.00;0.00;;;;;7.28;100.00;100169.59;5022302;28;45616;-81
2022/01/09 03:45:44;;;;;;;;;1.75;0.75;;;;;7.18;100.00;100169.09;5036504;28;45209;-81
2022/01/09 03:48:09;;;;;;;;;0.00;0.00;;;;;7.13;100.00;100172.31;5018146;28;45658;-81
2022/01/09 03:50:35;;;;;;;;;0.75;0.75;;;;;7.07;100.00;100168.56;5017761;28;45627;-81
2022/01/09 03:53:01;;;;;;;;;0.25;0.00;;;;;6.99;100.00;100157.00;5016166;28;45383;-81
2022/01/09 03:55:27;;;;;;;;;0.25;0.00;;;;;6.90;100.00;100160.00;5019062;28;45252;-81
2022/01/09 03:57:52;;;;;;;;;1.25;1.00;;;;;6.81;100.00;100143.31;5016143;28;45338;-81
2022/01/09 04:00:21;;;;;;;;;1.25;1.00;;;;;6.75;100.00;100155.88;4999120;28;45482;-81
2022/01/09 04:02:50;;;;;;;;;0.50;0.00;;;;;6.74;100.00;100153.22;5016564;28;46270;-81
2022/01/09 04:05:17;;;;;;;;;0.50;0.50;;;;;6.75;100.00;100137.00;5017064;28;45711;-81
2022/01/09 04:07:42;;;;;;;;;1.00;1.00;;;;;6.78;100.00;100140.59;5020971;28;45271;-81
2022/01/09 04:10:08;;;;;;;;;1.50;0.25;;;;;6.79;100.00;100138.91;5036177;28;45526;-81
2022/01/09 04:12:37;;;;;;;;;1.00;1.00;;;;;6.80;100.00;100135.53;5030660;28;45825;-81
2022/01/09 04:15:07;;;;;;;;;0.00;0.00;;;;;6.79;100.00;100129.50;5017203;28;45452;-81
2022/01/09 04:17:51;;;;;;;;;1.00;1.00;;;;;6.79;100.00;100134.63;5034778;28;45419;-80
2022/01/09 04:20:16;;;;;;;;;1.00;1.00;;;;;6.78;100.00;100145.72;5017606;28;45379;-80
2022/01/09 04:22:42;;;;;;;;;1.00;1.00;;;;;6.82;100.00;100160.53;5028209;28;45554;-80
2022/01/09 04:25:08;;;;;;;;;4.00;0.00;;;;;6.88;100.00;100162.53;5033034;28;45566;-81
2022/01/09 04:27:34;;;;;;;;;1.50;1.00;;;;;6.96;100.00;100166.34;5035534;28;45434;-81
2022/01/09 04:30:00;;;;;;;;;2.75;1.50;;;;;7.01;100.00;100168.28;5035442;28;45286;-80
2022/01/09 04:32:25;;;;;;;;;1.25;0.00;;;;;7.04;100.00;100152.97;5023044;28;46079;-81
2022/01/09 04:34:51;;;;;;;;;1.25;0.00;;;;;7.08;100.00;100160.03;5015367;28;45450;-80
2022/01/09 04:37:18;;;;;;;;;0.25;0.00;;;;;7.11;100.00;100168.78;5030397;28;45389;-81
2022/01/09 04:39:47;;;;;;;;;1.00;1.00;;;;;7.05;100.00;100162.44;5015742;28;45468;-81
2022/01/09 04:42:12;;;;;;;;;0.00;0.00;;;;;7.02;100.00;100173.47;5027986;28;45377;-81
2022/01/09 04:44:38;;;;;;;;;1.00;1.00;;;;;6.97;100.00;100178.41;5017310;28;45478;-81
2022/01/09 04:47:09;;;;;;;;;2.25;0.00;;;;;6.89;100.00;100158.25;5026036;28;45482;-81
2022/01/09 04:49:36;;;;;;;;;0.50;0.50;;;;;6.87;100.00;100170.16;5033209;28;45255;-81
2022/01/09 04:52:04;;;;;;;;;0.25;0.00;;;;;6.77;100.00;100167.13;5023136;28;46086;-81
2022/01/09 04:54:30;;;;;;;;;1.75;0.25;;;;;6.72;100.00;100154.84;5022229;28;45906;-81
2022/01/09 04:56:55;;;;;;;;;0.50;0.00;;;;;6.77;100.00;100159.41;5018707;28;45425;-81
2022/01/09 04:59:21;;;;;;;;;2.25;1.00;;;;;6.86;100.00;100165.84;5019106;28;45387;-80
2022/01/09 05:01:47;;;;;;;;;4.00;1.00;;;;;6.87;100.00;100158.19;5023934;28;45872;-80
2022/01/09 05:04:12;;;;;;;;;2.00;0.50;;;;;6.91;100.00;100154.94;5034706;28;45461;-81
2022/01/09 05:06:38;;;;;;;;;0.00;0.00;;;;;6.91;100.00;100165.22;5036722;28;45425;-80
2022/01/09 05:09:04;;;;;;;;;0.50;0.50;;;;;6.87;100.00;100157.28;5031619;28;45261;-81
2022/01/09 05:11:29;;;;;;;;;1.00;0.00;;;;;6.89;100.00;100176.25;5018802;28;45449;-81
2022/01/09 05:13:55;;;;;;;;;3.75;1.00;;;;;6.86;100.00;100164.13;5027047;28;45366;-80
2022/01/09 05:16:21;;;;;;;;;0.50;0.50;;;;;6.86;100.00;100158.97;5035284;28;45306;-81
2022/01/09 05:18:55;;;;;;;;;0.75;0.50;;;;;6.90;100.00;100162.59;5016550;28;45532;-81
2022/01/09 05:21:21;;;;;;;;;2.00;0.00;;;;;6.97;100.00;100169.78;5018458;28;45311;-80
2022/01/09 05:23:46;;;;;;;;;1.00;1.00;;;;;7.02;100.00;100152.88;5000781;28;45659;-81
2022/01/09 05:26:12;;;;;;;;;2.00;1.00;;;;;7.06;100.00;100148.78;5018282;28;45163;-81
2022/01/09 05:28:38;;;;;;;;;3.00;1.75;;;;;7.07;100.00;100147.97;5019610;28;46739;-81
2022/01/09 05:31:04;;;;;;;;;0.75;0.75;;;;;7.15;100.00;100146.63;5018227;28;45346;-83
2022/01/09 05:33:29;;;;;;;;;0.00;0.00;;;;;7.22;100.00;100147.81;5018326;28;45688;-83
2022/01/09 05:35:55;;;;;;;;;1.00;1.00;;;;;7.27;100.00;100148.94;5018393;28;45409;-81
2022/01/09 05:38:20;;;;;;;;;0.00;0.00;;;;;7.31;100.00;100148.25;5019838;28;46610;-80
2022/01/09 05:40:46;;;;;;;;;2.00;1.00;;;;;7.33;100.00;100143.19;5018353;28;46090;-82
2022/01/09 05:43:13;;;;;;;;;2.25;1.00;;;;;7.38;100.00;100146.84;5018043;28;45457;-82
2022/01/09 05:45:39;;;;;;;;;1.50;0.00;;;;;7.40;100.00;100165.81;5018607;28;45338;-81
2022/01/09 05:48:06;;;;;;;;;3.75;1.00;;;;;7.43;100.00;100184.88;5016067;28;45401;-83
2022/01/09 05:50:32;;;;;;;;;1.25;1.25;;;;;7.49;100.00;100192.00;5035399;28;46594;-81
2022/01/09 05:52:58;;;;;;;;;1.50;0.50;;;;;7.56;100.00;100199.22;5037107;28;45240;-81
2022/01/09 05:55:23;;;;;;;;;4.25;3.00;;;;;7.62;100.00;100193.47;5037866;28;45528;-81
2022/01/09 05:57:49;;;;;;;;;2.00;0.00;;;;;7.69;100.00;100192.94;5036400;28;45457;-81
2022/01/09 06:00:15;;;;;;;;;2.00;1.00;;;;;7.76;100.00;100178.66;5037265;28;46041;-80
2022/01/09 06:02:41;;;;;;;;;2.00;1.00;;;;;7.80;100.00;100180.53;5037726;28;45328;-81
2022/01/09 06:05:08;;;;;;;;;1.00;1.00;;;;;7.83;100.00;100184.97;5018698;28;45419;-81
2022/01/09 06:07:37;;;;;;;;;1.50;1.50;;;;;7.80;100.00;100167.66;5000775;28;45410;-80
2022/01/09 06:10:03;;;;;;;;;2.75;1.25;;;;;7.80;100.00;100165.09;5017589;28;45293;-81
2022/01/09 06:12:29;;;;;;;;;3.25;2.00;;;;;7.80;100.00;100166.78;5028642;28;45612;-81
2022/01/09 06:14:54;;;;;;;;;1.00;1.00;;;;;7.78;100.00;100178.72;5033898;28;45422;-81
2022/01/09 06:17:20;;;;;;;;;3.00;1.00;;;;;7.77;100.00;100175.28;5028847;28;45367;-80
2022/01/09 06:19:46;;;;;;;;;3.25;2.00;;;;;7.83;100.00;100187.56;5036210;28;45819;-81
2022/01/09 06:22:17;;;;;;;;;4.00;1.75;;;;;7.82;100.00;100185.78;5037066;28;45572;-81
2022/01/09 06:24:45;;;;;;;;;1.00;1.00;;;;;7.82;100.00;100180.63;5036322;28;45305;-81
2022/01/09 06:27:11;;;;;;;;;2.00;2.00;;;;;7.86;100.00;100186.00;5033964;28;45554;-81
2022/01/09 06:29:36;;;;;;;;;1.50;1.00;;;;;7.82;100.00;100183.22;5017135;28;45456;-81
2022/01/09 06:32:02;;;;;;;;;4.00;1.00;;;;;7.74;100.00;100178.56;5018076;28;45332;-81
2022/01/09 06:34:28;;;;;;;;;1.75;1.75;;;;;7.71;100.00;100187.88;5017619;28;45340;-82
2022/01/09 06:36:53;;;;;;;;;1.00;0.25;;;;;7.65;100.00;100191.03;5025006;28;45444;-82
2022/01/09 06:39:19;;;;;;;;;1.00;1.00;;;;;7.61;100.00;100198.56;5035573;28;45694;-82
2022/01/09 06:41:44;;;;;;;;;4.25;0.75;;;;;7.57;100.00;100208.69;5036431;28;45318;-81
2022/01/09 06:44:10;;;;;;;;;0.50;0.50;;;;;7.57;100.00;100200.97;5017395;28;45261;-82
2022/01/09 06:46:36;;;;;;;;;1.50;1.25;;;;;7.57;100.00;100215.56;5017346;28;45237;-81
2022/01/09 06:49:02;;;;;;;;;1.00;1.00;;;;;7.59;100.00;100203.66;5017729;28;45943;-81
2022/01/09 06:51:28;;;;;;;;;1.25;1.00;;;;;7.55;100.00;100217.19;5028378;28;45470;-82
2022/01/09 06:53:53;;;;;;;;;1.00;0.00;;;;;7.48;100.00;100197.97;5034795;28;45238;-83
2022/01/09 06:56:19;;;;;;;;;0.00;0.00;;;;;7.36;100.00;100216.31;5037172;28;45577;-83
2022/01/09 06:58:44;;;;;;;;;0.00;0.00;;;;;7.18;100.00;100200.84;5028444;28;46824;-83
2022/01/09 07:01:10;;;;;;;;;1.00;1.00;;;;;7.08;100.00;100203.78;5020086;28;45413;-83
2022/01/09 07:03:35;;;;;;;;;0.00;0.00;;;;;7.07;100.00;100197.75;5017035;28;45301;-82
2022/01/09 07:06:01;;;;;;;;;1.50;0.75;;;;;7.09;100.00;100198.69;5000121;28;45258;-81
2022/01/09 07:08:28;;;;;;;;;0.00;0.00;;;;;7.06;100.00;100197.69;5034052;28;45315;-83
2022/01/09 07:10:54;;;;;;;;;0.00;0.00;;;;;7.08;100.00;100203.78;5036193;28;45340;-83
2022/01/09 07:13:20;;;;;;;;;0.50;0.50;;;;;7.11;100.00;100199.66;5024697;28;45267;-81
2022/01/09 07:15:46;;;;;;;;;0.75;0.75;;;;;7.09;100.00;100196.13;5018368;28;45298;-83
2022/01/09 07:18:11;;;;;;;;;3.00;0.00;;;;;7.08;100.00;100196.94;5016249;28;46133;-83
2022/01/09 07:20:37;;;;;;;;;0.00;0.00;;;;;7.09;100.00;100198.69;5027786;28;45264;-83
2022/01/09 07:23:03;;;;;;;;;1.50;0.00;;;;;7.08;100.00;100196.94;5034734;28;45240;-81
2022/01/09 07:25:29;;;;;;;;;0.00;0.00;;;;;7.08;100.00;100204.66;5030121;28;45710;-81
2022/01/09 07:27:54;;;;;;;;;2.75;0.00;;;;;7.00;100.00;100208.56;5024934;28;45786;-81
2022/01/09 07:30:20;;;;;;;;;2.00;0.00;;;;;6.93;100.00;100211.63;5008095;28;45535;-84
2022/01/09 07:32:46;;;;;;;;;3.00;0.50;;;;;6.93;100.00;100216.78;5033770;28;45554;-87
2022/01/09 07:35:11;;;;;;;;;0.00;0.00;;;;;6.94;100.00;100216.84;5022167;28;45533;-87
2022/01/09 07:37:37;;;;;;;;;2.00;0.75;;;;;6.93;100.00;100216.78;5017284;28;46067;-88
2022/01/09 07:40:04;;;;;;;;;0.75;0.75;;;;;6.88;100.00;100211.41;5034394;28;45438;-85
2022/01/09 07:42:29;;;;;;;;;0.25;0.25;;;;;6.86;100.00;100205.31;5024021;28;45252;-82
2022/01/09 07:44:55;;;;;;;;;0.75;0.25;;;;;6.82;100.00;100203.38;5011361;28;45277;-82
2022/01/09 07:47:21;;;;;;;;;0.25;0.25;;;;;6.84;100.00;100213.75;5021615;28;45471;-84
2022/01/09 07:49:47;;;;;;;;;0.50;0.00;;;;;6.75;100.00;100239.91;5032147;28;45484;-78
2022/01/09 07:52:12;;;;;;;;;0.75;0.00;;;;;6.68;100.00;100237.81;5034141;28;45505;-91
2022/01/09 07:54:38;;;;;;;;;2.00;0.25;;;;;6.61;100.00;100219.50;5040967;28;45625;-85
2022/01/09 07:57:04;;;;;;;;;0.00;0.00;;;;;6.61;100.00;100210.91;5040193;28;45478;-83
2022/01/09 07:59:29;;;;;;;;;0.25;0.25;;;;;6.65;100.00;100215.38;5036751;28;46010;-84
2022/01/09 08:01:55;;;;;;;;;1.00;1.00;;;;;6.71;100.00;100204.50;5034742;28;45725;-90
2022/01/09 08:04:21;;;;;;;;;1.00;1.00;;;;;6.75;100.00;100201.31;5036814;28;45489;-82
2022/01/09 08:06:46;;;;;;;;;1.00;0.00;;;;;6.73;100.00;100203.81;5035232;28;45430;-81
2022/01/09 08:09:12;;;;;;;;;2.00;0.00;;;;;6.74;100.00;100200.44;5019308;28;45550;-88
2022/01/09 08:11:38;;;;;;;;;0.25;0.00;;;;;6.73;100.00;100213.19;5038156;28;45370;-88
2022/01/09 08:14:03;;;;;;;;;0.25;0.00;;;;;6.69;100.00;100207.03;5036952;28;45352;-82
2022/01/09 08:16:29;;;;;;;;;1.00;1.00;;;;;6.69;100.00;100219.00;5035192;28;46073;-83
2022/01/09 08:18:55;;;;;;;;;0.00;0.00;;;;;6.69;100.00;100217.31;5024343;28;45386;-83
2022/01/09 08:21:20;;;;;;;;;0.00;0.00;;;;;6.70;100.00;100213.94;5025524;28;45455;-83
2022/01/09 08:23:47;;;;;;;;;0.00;0.00;;;;;6.70;100.00;100210.47;5035449;28;45375;-84
2022/01/09 08:26:14;;;;;;;;;1.25;0.00;;;;;6.78;100.00;100211.75;5035433;28;45690;-83
2022/01/09 08:28:44;;;;;;;;;0.00;0.00;;;;;6.81;100.00;100209.31;5035152;28;45522;-82
2022/01/09 08:31:11;;;;;;;;;0.25;0.00;;;;;6.86;100.00;100214.72;5035317;28;45352;-82
2022/01/09 08:33:37;;;;;;;;;1.00;1.00;;;;;6.87;100.00;100208.75;5016664;28;45345;-80
2022/01/09 08:36:03;;;;;;;;;1.75;0.00;;;;;6.84;100.00;100203.47;5034279;28;46388;-81
2022/01/09 08:38:29;;;;;;;;;0.00;0.00;;;;;6.87;100.00;100196.78;5034722;28;45470;-80
2022/01/09 08:40:55;;;;;;;;;0.00;0.00;;;;;6.86;100.00;100213.03;5034594;28;45481;-81
2022/01/09 08:43:20;;;;;;;;;0.00;0.00;;;;;6.90;100.00;100212.38;5034640;28;45521;-81
2022/01/09 08:45:46;;;;;;;;;0.00;0.00;;;;;6.96;100.00;100212.66;5025757;28;45519;-84
2022/01/09 08:48:12;;;;;;;;;0.00;0.00;;;;;7.01;100.00;100212.91;5035041;28;45338;-82
2022/01/09 08:50:37;;;;;;;;;0.50;0.00;;;;;7.03;100.00;100212.97;5017358;28;45289;-83
2022/01/09 08:53:03;;;;;;;;;1.00;0.00;;;;;7.11;100.00;100207.38;5041157;28;45308;-79
2022/01/09 08:55:29;;;;;;;;;0.00;0.00;;;;;7.17;100.00;100218.81;5016292;28;46710;-82
2022/01/09 08:57:57;;;;;;;;;0.00;0.00;;;;;7.21;100.00;100231.91;5034225;28;45697;-84
2022/01/09 09:00:23;;;;;;;;;1.00;0.25;;;;;7.25;100.00;100228.66;5036704;28;45515;-85
2022/01/09 09:02:49;;;;;;;;;2.00;1.00;;;;;7.31;100.00;100240.06;5037095;28;45563;-85
2022/01/09 09:05:15;;;;;;;;;6.00;2.00;;;;;7.34;100.00;100238.53;5038564;28;46150;-85
2022/01/09 09:07:40;;;;;;;;;1.00;1.00;;;;;7.40;100.00;100251.69;5036080;28;45616;-86
2022/01/09 09:10:09;;;;;;;;;2.00;1.25;;;;;7.43;100.00;100246.69;5045714;28;45280;-84
2022/01/09 09:12:34;;;;;;;;;0.00;0.00;;;;;7.43;100.00;100254.41;5040846;28;45606;-86
2022/01/09 09:15:03;;;;;;;;;0.00;0.00;;;;;7.46;100.00;100256.25;5037780;28;46060;-87
2022/01/09 09:17:30;;;;;;;;;0.00;0.00;;;;;7.57;100.00;100261.94;5018671;28;45333;-84
2022/01/09 09:19:56;;;;;;;;;2.00;2.00;;;;;7.60;100.00;100264.66;5040834;28;45470;-87
2022/01/09 09:22:22;;;;;;;;;2.00;1.00;;;;;7.66;100.00;100261.50;5040356;28;45602;-83
2022/01/09 09:24:48;;;;;;;;;3.00;1.75;;;;;7.69;100.00;100272.81;5038633;28;45439;-89
2022/01/09 09:27:14;;;;;;;;;3.75;1.00;;;;;7.72;100.00;100279.81;5036672;28;45477;-89
2022/01/09 09:29:40;;;;;;;;;3.75;3.00;;;;;7.74;100.00;100266.19;5040226;28;45344;-85
2022/01/09 09:32:06;;;;;;;;;7.50;5.75;;;;;7.80;100.00;100268.16;5040024;28;45223;-88
2022/01/09 09:34:31;;;;;;;;;4.00;2.50;;;;;7.85;100.00;100258.06;5038346;28;45313;-82
2022/01/09 09:36:57;;;;;;;;;3.50;3.00;;;;;7.88;100.00;100258.22;5039051;28;45240;-86
2022/01/09 09:39:23;;;;;;;;;5.00;4.00;;;;;7.87;100.00;100271.91;5040163;28;45228;-89
2022/01/09 09:41:51;;;;;;;;;4.00;3.00;;;;;7.88;100.00;100260.81;5046419;28;45250;-86
2022/01/09 09:44:17;;;;;;;;;2.75;2.75;;;;;7.89;100.00;100247.97;5045661;28;46221;-91
2022/01/09 09:46:49;;;;;;;;;7.75;7.00;;;;;7.92;100.00;100256.66;5042082;28;45292;-88
2022/01/09 09:49:15;;;;;;;;;3.00;3.00;;;;;7.95;100.00;100272.28;5040459;28;45468;-86
2022/01/09 09:51:41;;;;;;;;;2.75;0.25;;;;;7.97;100.00;100287.00;5040988;28;45627;-87
2022/01/09 09:54:07;;;;;;;;;1.00;1.00;;;;;7.96;100.00;100279.22;5040964;28;45921;-84
2022/01/09 09:56:33;;;;;;;;;2.00;2.00;;;;;7.97;100.00;100283.56;5040598;28;45418;-86
2022/01/09 09:59:00;;;;;;;;;0.00;0.00;;;;;8.00;100.00;100286.25;5040772;28;45504;-87
2022/01/09 10:01:31;;;;;;;;;1.50;1.00;;;;;7.99;100.00;100289.69;5044020;28;45650;-85
2022/01/09 10:04:03;;;;;;;;;0.75;0.00;;;;;8.01;100.00;100278.63;5040677;28;46462;-85
2022/01/09 10:06:47;;;;;;;;;2.00;2.00;;;;;8.03;100.00;100282.16;5040909;28;45765;-87
2022/01/09 10:09:15;;;;;;;;;2.25;1.75;;;;;8.05;100.00;100285.66;5020110;28;45267;-88
2022/01/09 10:11:53;;;;;;;;;4.00;2.00;;;;;8.09;100.00;100280.66;5022155;28;45343;-86
2022/01/09 10:14:25;;;;;;;;;2.50;2.50;;;;;8.09;100.00;100273.81;5020254;28;45437;-87
2022/01/09 10:17:12;;;;;;;;;3.00;3.00;;;;;8.14;100.00;100269.75;5021784;28;45423;-86
2022/01/09 10:20:04;;;;;;;;;3.00;3.00;;;;;8.19;100.00;100281.16;5029505;28;45529;-87
2022/01/09 10:22:39;;;;;;;;;4.25;4.25;;;;;8.22;100.00;100285.56;5039061;28;45837;-88
2022/01/09 10:25:25;;;;;;;;;9.25;5.75;;;;;8.27;100.00;100272.88;5039763;28;46364;-83
2022/01/09 10:28:05;;;;;;;;;9.00;7.50;;;;;8.30;100.00;100280.75;5041093;28;45272;-87
2022/01/09 10:30:34;;;;;;;;;5.00;4.00;;;;;8.36;100.00;100284.50;5042809;28;45154;-87
2022/01/09 10:33:03;;;;;;;;;10.50;9.75;;;;;8.42;100.00;100293.31;5039457;28;45861;-89
2022/01/09 10:35:29;;;;;;;;;11.25;9.75;;;;;8.48;100.00;100296.19;5039697;28;45476;-90
2022/01/09 10:38:06;;;;;;;;;5.00;4.25;;;;;8.44;100.00;100286.53;5051468;28;45145;-81
2022/01/09 10:40:34;;;;;;;;;7.50;5.00;;;;;8.43;100.00;100306.28;5050811;28;45236;-84
2022/01/09 10:43:05;;;;;;;;;7.75;4.00;;;;;8.39;100.00;100312.13;5039571;28;45824;-86
2022/01/09 10:45:32;;;;;;;;;7.75;4.25;;;;;8.35;100.00;100318.84;5019161;28;45406;-80
2022/01/09 10:48:12;;;;;;;;;3.00;3.00;;;;;8.34;100.00;100318.75;5036883;28;45733;-82
2022/01/09 10:50:41;;;;;;;;;3.00;3.00;;;;;8.32;100.00;100312.63;5037826;28;45337;-86
2022/01/09 10:53:17;;;;;;;;;5.00;4.00;;;;;8.32;100.00;100310.97;5043494;28;45238;-84
2022/01/09 10:55:48;;;;;;;;;2.50;2.00;;;;;8.29;100.00;100328.88;5038907;28;45279;-77
2022/01/09 10:58:18;;;;;;;;;5.25;5.25;;;;;8.29;100.00;100323.72;5038049;28;45257;-81
2022/01/09 11:00:44;;;;;;;;;3.50;3.00;;;;;8.29;100.00;100325.41;5040244;28;45232;-80
2022/01/09 11:03:09;;;;;;;;;7.00;7.00;;;;;8.30;100.00;100327.19;5039167;28;45830;-82
2022/01/09 11:05:35;;;;;;;;;4.50;4.25;;;;;8.30;100.00;100314.28;5039546;28;46100;-83
2022/01/09 11:08:02;;;;;;;;;4.00;3.00;;;;;8.28;100.00;100329.69;5038728;28;45345;-85
2022/01/09 11:10:29;;;;;;;;;3.00;3.00;;;;;8.24;100.00;100326.88;5041899;28;45441;-77
2022/01/09 11:12:59;;;;;;;;;2.00;2.00;;;;;8.22;100.00;100337.13;5053298;28;45339;-82
2022/01/09 11:15:29;;;;;;;;;3.25;3.25;;;;;8.19;100.00;100318.94;5038464;28;45905;-78
2022/01/09 11:17:58;;;;;;;;;7.00;5.00;;;;;8.17;100.00;100315.41;5039904;28;45465;-80
2022/01/09 11:20:24;;;;;;;;;3.75;3.75;;;;;8.23;100.00;100309.66;5042772;28;45520;-87
2022/01/09 11:22:53;;;;;;;;;4.00;4.00;;;;;8.24;100.00;100307.16;5038409;28;45402;-80
2022/01/09 11:25:31;;;;;;;;;4.25;3.75;;;;;8.22;100.00;100308.78;5037319;28;46039;-88
2022/01/09 11:28:23;;;;;;;;;3.25;2.25;;;;;8.28;100.00;100316.78;5037759;28;45670;-85